sensor_id;sensor_type;location;lat;lon;timestamp;P1;durP1;ratioP1;P2;durP2;ratioP2
18732;SDS011;9495;51.210;2.934;2023-11-19T00:00:27;75.80;;;12.70;;
18732;SDS011;9495;51.210;2.934;2023-11-19T00:02:56;62.03;;;10.23;;
18732;SDS011;9495;51.210;2.934;2023-11-19T00:05:26;59.28;;;9.00;;
18732;SDS011;9495;51.210;2.934;2023-11-19T00:07:55;53.33;;;9.10;;
18732;SDS011;9495;51.210;2.934;2023-11-19T00:10:23;64.13;;;9.82;;
18732;SDS011;9495;51.210;2.934;2023-11-19T00:12:52;58.63;;;8.80;;
18732;SDS011;9495;51.210;2.934;2023-11-19T00:15:21;45.70;;;9.93;;
18732;SDS011;9495;51.210;2.934;2023-11-19T00:17:50;56.33;;;10.60;;
18732;SDS011;9495;51.210;2.934;2023-11-19T00:20:19;53.50;;;10.93;;
18732;SDS011;9495;51.210;2.934;2023-11-19T00:22:50;55.58;;;8.77;;
18732;SDS011;9495;51.210;2.934;2023-11-19T00:25:19;66.28;;;11.30;;
18732;SDS011;9495;51.210;2.934;2023-11-19T00:27:49;65.60;;;10.70;;
18732;SDS011;9495;51.210;2.934;2023-11-19T00:30:20;70.97;;;12.00;;
18732;SDS011;9495;51.210;2.934;2023-11-19T00:32:49;61.58;;;10.50;;
18732;SDS011;9495;51.210;2.934;2023-11-19T00:35:18;60.00;;;10.38;;
18732;SDS011;9495;51.210;2.934;2023-11-19T00:37:46;70.90;;;11.52;;
18732;SDS011;9495;51.210;2.934;2023-11-19T00:40:17;52.83;;;9.85;;
18732;SDS011;9495;51.210;2.934;2023-11-19T00:42:49;56.30;;;10.70;;
18732;SDS011;9495;51.210;2.934;2023-11-19T00:45:18;54.97;;;9.05;;
18732;SDS011;9495;51.210;2.934;2023-11-19T00:47:46;48.25;;;9.65;;
18732;SDS011;9495;51.210;2.934;2023-11-19T00:50:15;66.47;;;9.95;;
18732;SDS011;9495;51.210;2.934;2023-11-19T00:52:44;58.47;;;9.68;;
18732;SDS011;9495;51.210;2.934;2023-11-19T00:55:13;57.80;;;10.07;;
18732;SDS011;9495;51.210;2.934;2023-11-19T00:57:43;51.10;;;9.38;;
18732;SDS011;9495;51.210;2.934;2023-11-19T01:00:12;53.33;;;9.23;;
18732;SDS011;9495;51.210;2.934;2023-11-19T01:02:46;63.53;;;12.18;;
18732;SDS011;9495;51.210;2.934;2023-11-19T01:05:18;58.67;;;11.18;;
18732;SDS011;9495;51.210;2.934;2023-11-19T01:07:49;55.03;;;10.35;;
18732;SDS011;9495;51.210;2.934;2023-11-19T01:10:21;57.72;;;10.52;;
18732;SDS011;9495;51.210;2.934;2023-11-19T01:12:52;60.88;;;9.23;;
18732;SDS011;9495;51.210;2.934;2023-11-19T01:15:21;56.55;;;10.90;;
18732;SDS011;9495;51.210;2.934;2023-11-19T01:17:50;68.18;;;10.60;;
18732;SDS011;9495;51.210;2.934;2023-11-19T01:20:20;63.60;;;12.18;;
18732;SDS011;9495;51.210;2.934;2023-11-19T01:22:48;59.15;;;9.63;;
18732;SDS011;9495;51.210;2.934;2023-11-19T01:25:17;62.15;;;10.60;;
18732;SDS011;9495;51.210;2.934;2023-11-19T01:27:46;72.45;;;11.50;;
18732;SDS011;9495;51.210;2.934;2023-11-19T01:30:18;62.20;;;10.88;;
18732;SDS011;9495;51.210;2.934;2023-11-19T01:32:46;66.05;;;11.60;;
18732;SDS011;9495;51.210;2.934;2023-11-19T01:35:15;63.42;;;11.68;;
18732;SDS011;9495;51.210;2.934;2023-11-19T01:37:43;47.15;;;8.07;;
18732;SDS011;9495;51.210;2.934;2023-11-19T01:40:12;53.28;;;9.80;;
18732;SDS011;9495;51.210;2.934;2023-11-19T01:42:42;66.80;;;10.45;;
18732;SDS011;9495;51.210;2.934;2023-11-19T01:45:10;63.70;;;10.68;;
18732;SDS011;9495;51.210;2.934;2023-11-19T01:47:55;53.20;;;8.63;;
18732;SDS011;9495;51.210;2.934;2023-11-19T01:50:24;59.70;;;9.40;;
18732;SDS011;9495;51.210;2.934;2023-11-19T01:52:54;50.33;;;9.98;;
18732;SDS011;9495;51.210;2.934;2023-11-19T01:55:24;49.30;;;9.68;;
18732;SDS011;9495;51.210;2.934;2023-11-19T01:57:54;47.95;;;9.63;;
18732;SDS011;9495;51.210;2.934;2023-11-19T02:00:30;51.05;;;8.68;;
18732;SDS011;9495;51.210;2.934;2023-11-19T02:03:00;49.15;;;9.75;;
18732;SDS011;9495;51.210;2.934;2023-11-19T02:05:30;62.00;;;10.05;;
18732;SDS011;9495;51.210;2.934;2023-11-19T02:08:00;57.42;;;9.27;;
18732;SDS011;9495;51.210;2.934;2023-11-19T02:10:29;61.58;;;10.05;;
18732;SDS011;9495;51.210;2.934;2023-11-19T02:12:58;56.85;;;9.60;;
18732;SDS011;9495;51.210;2.934;2023-11-19T02:15:32;59.72;;;10.25;;
18732;SDS011;9495;51.210;2.934;2023-11-19T02:18:20;63.25;;;11.25;;
18732;SDS011;9495;51.210;2.934;2023-11-19T02:20:49;57.85;;;8.95;;
18732;SDS011;9495;51.210;2.934;2023-11-19T02:23:18;79.53;;;12.13;;
18732;SDS011;9495;51.210;2.934;2023-11-19T02:25:51;57.40;;;10.77;;
18732;SDS011;9495;51.210;2.934;2023-11-19T02:28:29;75.13;;;10.77;;
18732;SDS011;9495;51.210;2.934;2023-11-19T02:30:58;53.28;;;10.23;;
18732;SDS011;9495;51.210;2.934;2023-11-19T02:33:27;57.40;;;10.52;;
18732;SDS011;9495;51.210;2.934;2023-11-19T02:35:55;63.38;;;10.43;;
18732;SDS011;9495;51.210;2.934;2023-11-19T02:38:24;62.90;;;9.77;;
18732;SDS011;9495;51.210;2.934;2023-11-19T02:40:52;61.60;;;9.95;;
18732;SDS011;9495;51.210;2.934;2023-11-19T02:43:21;55.85;;;9.32;;
18732;SDS011;9495;51.210;2.934;2023-11-19T02:45:51;58.47;;;10.20;;
18732;SDS011;9495;51.210;2.934;2023-11-19T02:48:22;53.33;;;9.75;;
18732;SDS011;9495;51.210;2.934;2023-11-19T02:50:51;61.47;;;9.68;;
18732;SDS011;9495;51.210;2.934;2023-11-19T02:53:20;64.47;;;10.25;;
18732;SDS011;9495;51.210;2.934;2023-11-19T02:55:49;56.63;;;10.68;;
18732;SDS011;9495;51.210;2.934;2023-11-19T02:58:18;57.40;;;9.13;;
18732;SDS011;9495;51.210;2.934;2023-11-19T03:00:52;66.55;;;10.15;;
18732;SDS011;9495;51.210;2.934;2023-11-19T03:03:24;64.97;;;10.40;;
18732;SDS011;9495;51.210;2.934;2023-11-19T03:05:57;57.30;;;10.82;;
18732;SDS011;9495;51.210;2.934;2023-11-19T03:08:25;55.30;;;10.95;;
18732;SDS011;9495;51.210;2.934;2023-11-19T03:10:54;52.67;;;9.50;;
18732;SDS011;9495;51.210;2.934;2023-11-19T03:13:23;60.22;;;11.70;;
18732;SDS011;9495;51.210;2.934;2023-11-19T03:15:53;68.50;;;10.77;;
18732;SDS011;9495;51.210;2.934;2023-11-19T03:18:21;71.80;;;11.13;;
18732;SDS011;9495;51.210;2.934;2023-11-19T03:20:51;57.00;;;10.93;;
18732;SDS011;9495;51.210;2.934;2023-11-19T03:23:20;54.95;;;10.55;;
18732;SDS011;9495;51.210;2.934;2023-11-19T03:25:49;66.22;;;11.40;;
18732;SDS011;9495;51.210;2.934;2023-11-19T03:28:17;60.17;;;9.90;;
18732;SDS011;9495;51.210;2.934;2023-11-19T03:30:46;62.63;;;10.47;;
18732;SDS011;9495;51.210;2.934;2023-11-19T03:33:16;76.07;;;11.70;;
18732;SDS011;9495;51.210;2.934;2023-11-19T03:35:44;57.90;;;10.15;;
18732;SDS011;9495;51.210;2.934;2023-11-19T03:38:13;69.67;;;9.87;;
18732;SDS011;9495;51.210;2.934;2023-11-19T03:40:42;48.20;;;7.80;;
18732;SDS011;9495;51.210;2.934;2023-11-19T03:43:10;57.57;;;8.97;;
18732;SDS011;9495;51.210;2.934;2023-11-19T03:45:39;69.32;;;10.02;;
18732;SDS011;9495;51.210;2.934;2023-11-19T03:48:08;63.22;;;11.15;;
18732;SDS011;9495;51.210;2.934;2023-11-19T03:50:38;55.72;;;10.13;;
18732;SDS011;9495;51.210;2.934;2023-11-19T03:53:07;56.08;;;10.07;;
18732;SDS011;9495;51.210;2.934;2023-11-19T03:55:35;57.40;;;10.02;;
18732;SDS011;9495;51.210;2.934;2023-11-19T03:58:04;57.27;;;10.13;;
18732;SDS011;9495;51.210;2.934;2023-11-19T04:00:32;56.97;;;10.17;;
18732;SDS011;9495;51.210;2.934;2023-11-19T04:03:01;57.47;;;10.13;;
18732;SDS011;9495;51.210;2.934;2023-11-19T04:05:31;55.05;;;10.30;;
18732;SDS011;9495;51.210;2.934;2023-11-19T04:08:01;48.00;;;8.60;;
18732;SDS011;9495;51.210;2.934;2023-11-19T04:10:29;59.55;;;9.75;;
18732;SDS011;9495;51.210;2.934;2023-11-19T04:12:58;50.58;;;9.40;;
18732;SDS011;9495;51.210;2.934;2023-11-19T04:15:27;48.53;;;9.82;;
18732;SDS011;9495;51.210;2.934;2023-11-19T04:17:56;60.13;;;10.25;;
18732;SDS011;9495;51.210;2.934;2023-11-19T04:20:25;47.60;;;8.85;;
18732;SDS011;9495;51.210;2.934;2023-11-19T04:22:53;55.25;;;9.52;;
18732;SDS011;9495;51.210;2.934;2023-11-19T04:25:23;51.33;;;8.88;;
18732;SDS011;9495;51.210;2.934;2023-11-19T04:27:52;46.30;;;8.55;;
18732;SDS011;9495;51.210;2.934;2023-11-19T04:30:21;52.20;;;9.13;;
18732;SDS011;9495;51.210;2.934;2023-11-19T04:32:50;49.20;;;9.88;;
18732;SDS011;9495;51.210;2.934;2023-11-19T04:35:18;48.00;;;8.30;;
18732;SDS011;9495;51.210;2.934;2023-11-19T04:37:47;48.22;;;9.38;;
18732;SDS011;9495;51.210;2.934;2023-11-19T04:40:16;55.95;;;9.25;;
18732;SDS011;9495;51.210;2.934;2023-11-19T04:42:47;42.60;;;8.27;;
18732;SDS011;9495;51.210;2.934;2023-11-19T04:45:15;48.63;;;8.20;;
18732;SDS011;9495;51.210;2.934;2023-11-19T04:47:43;43.25;;;8.15;;
18732;SDS011;9495;51.210;2.934;2023-11-19T04:50:12;45.53;;;8.60;;
18732;SDS011;9495;51.210;2.934;2023-11-19T04:52:41;42.22;;;7.20;;
18732;SDS011;9495;51.210;2.934;2023-11-19T04:55:12;38.10;;;8.00;;
18732;SDS011;9495;51.210;2.934;2023-11-19T04:57:41;48.33;;;8.30;;
18732;SDS011;9495;51.210;2.934;2023-11-19T05:00:12;41.38;;;8.05;;
18732;SDS011;9495;51.210;2.934;2023-11-19T05:02:43;45.92;;;7.78;;
18732;SDS011;9495;51.210;2.934;2023-11-19T05:05:12;45.08;;;7.78;;
18732;SDS011;9495;51.210;2.934;2023-11-19T05:07:40;39.92;;;6.93;;
18732;SDS011;9495;51.210;2.934;2023-11-19T05:10:09;46.42;;;8.90;;
18732;SDS011;9495;51.210;2.934;2023-11-19T05:12:38;47.40;;;7.75;;
18732;SDS011;9495;51.210;2.934;2023-11-19T05:15:08;49.20;;;7.90;;
18732;SDS011;9495;51.210;2.934;2023-11-19T05:17:39;52.10;;;8.43;;
18732;SDS011;9495;51.210;2.934;2023-11-19T05:20:08;48.15;;;8.30;;
18732;SDS011;9495;51.210;2.934;2023-11-19T05:22:40;42.88;;;7.18;;
18732;SDS011;9495;51.210;2.934;2023-11-19T05:25:09;44.63;;;8.00;;
18732;SDS011;9495;51.210;2.934;2023-11-19T05:27:38;42.08;;;7.05;;
18732;SDS011;9495;51.210;2.934;2023-11-19T05:30:07;38.17;;;7.13;;
18732;SDS011;9495;51.210;2.934;2023-11-19T05:32:37;38.80;;;7.13;;
18732;SDS011;9495;51.210;2.934;2023-11-19T05:35:07;43.67;;;7.07;;
18732;SDS011;9495;51.210;2.934;2023-11-19T05:37:36;45.22;;;7.97;;
18732;SDS011;9495;51.210;2.934;2023-11-19T05:40:05;43.90;;;7.60;;
18732;SDS011;9495;51.210;2.934;2023-11-19T05:42:41;44.13;;;8.73;;
18732;SDS011;9495;51.210;2.934;2023-11-19T05:45:10;43.20;;;7.97;;
18732;SDS011;9495;51.210;2.934;2023-11-19T05:47:41;44.53;;;8.18;;
18732;SDS011;9495;51.210;2.934;2023-11-19T05:50:10;42.03;;;8.43;;
18732;SDS011;9495;51.210;2.934;2023-11-19T05:52:39;43.95;;;7.22;;
18732;SDS011;9495;51.210;2.934;2023-11-19T05:55:07;33.55;;;7.30;;
18732;SDS011;9495;51.210;2.934;2023-11-19T05:57:37;42.35;;;8.02;;
18732;SDS011;9495;51.210;2.934;2023-11-19T06:00:09;45.28;;;7.78;;
18732;SDS011;9495;51.210;2.934;2023-11-19T06:02:40;45.10;;;7.80;;
18732;SDS011;9495;51.210;2.934;2023-11-19T06:05:09;44.08;;;8.85;;
18732;SDS011;9495;51.210;2.934;2023-11-19T06:07:38;47.63;;;8.18;;
18732;SDS011;9495;51.210;2.934;2023-11-19T06:10:08;48.60;;;8.45;;
18732;SDS011;9495;51.210;2.934;2023-11-19T06:12:37;46.72;;;8.32;;
18732;SDS011;9495;51.210;2.934;2023-11-19T06:15:08;34.80;;;7.45;;
18732;SDS011;9495;51.210;2.934;2023-11-19T06:17:38;42.60;;;7.95;;
18732;SDS011;9495;51.210;2.934;2023-11-19T06:20:08;40.60;;;8.68;;
18732;SDS011;9495;51.210;2.934;2023-11-19T06:22:38;49.45;;;8.38;;
18732;SDS011;9495;51.210;2.934;2023-11-19T06:25:08;48.05;;;7.10;;
18732;SDS011;9495;51.210;2.934;2023-11-19T06:27:39;53.10;;;7.68;;
18732;SDS011;9495;51.210;2.934;2023-11-19T06:30:07;39.97;;;7.40;;
18732;SDS011;9495;51.210;2.934;2023-11-19T06:32:38;35.33;;;7.30;;
18732;SDS011;9495;51.210;2.934;2023-11-19T06:35:06;41.28;;;7.68;;
18732;SDS011;9495;51.210;2.934;2023-11-19T06:37:38;46.55;;;7.97;;
18732;SDS011;9495;51.210;2.934;2023-11-19T06:40:07;34.75;;;7.20;;
18732;SDS011;9495;51.210;2.934;2023-11-19T06:42:36;47.00;;;8.63;;
18732;SDS011;9495;51.210;2.934;2023-11-19T06:45:05;43.17;;;7.45;;
18732;SDS011;9495;51.210;2.934;2023-11-19T06:47:34;40.35;;;8.23;;
18732;SDS011;9495;51.210;2.934;2023-11-19T06:50:03;45.10;;;8.32;;
18732;SDS011;9495;51.210;2.934;2023-11-19T06:52:35;53.70;;;9.85;;
18732;SDS011;9495;51.210;2.934;2023-11-19T06:55:04;45.17;;;7.63;;
18732;SDS011;9495;51.210;2.934;2023-11-19T06:57:34;46.70;;;8.40;;
18732;SDS011;9495;51.210;2.934;2023-11-19T07:00:03;41.78;;;7.63;;
18732;SDS011;9495;51.210;2.934;2023-11-19T07:02:33;46.53;;;7.55;;
18732;SDS011;9495;51.210;2.934;2023-11-19T07:05:01;42.28;;;8.45;;
18732;SDS011;9495;51.210;2.934;2023-11-19T07:07:31;40.50;;;8.35;;
18732;SDS011;9495;51.210;2.934;2023-11-19T07:10:01;40.08;;;7.95;;
18732;SDS011;9495;51.210;2.934;2023-11-19T07:12:31;40.40;;;8.38;;
18732;SDS011;9495;51.210;2.934;2023-11-19T07:15:00;50.92;;;8.70;;
18732;SDS011;9495;51.210;2.934;2023-11-19T07:17:29;49.65;;;8.48;;
18732;SDS011;9495;51.210;2.934;2023-11-19T07:19:58;35.53;;;7.07;;
18732;SDS011;9495;51.210;2.934;2023-11-19T07:22:26;53.05;;;9.57;;
18732;SDS011;9495;51.210;2.934;2023-11-19T07:24:56;48.38;;;10.50;;
18732;SDS011;9495;51.210;2.934;2023-11-19T07:27:26;47.65;;;8.50;;
18732;SDS011;9495;51.210;2.934;2023-11-19T07:29:55;44.25;;;8.35;;
18732;SDS011;9495;51.210;2.934;2023-11-19T07:32:24;45.03;;;9.10;;
18732;SDS011;9495;51.210;2.934;2023-11-19T07:34:52;38.28;;;7.85;;
18732;SDS011;9495;51.210;2.934;2023-11-19T07:37:23;39.97;;;7.47;;
18732;SDS011;9495;51.210;2.934;2023-11-19T07:39:51;46.53;;;9.23;;
18732;SDS011;9495;51.210;2.934;2023-11-19T07:42:20;46.08;;;8.10;;
18732;SDS011;9495;51.210;2.934;2023-11-19T07:44:50;49.63;;;9.55;;
18732;SDS011;9495;51.210;2.934;2023-11-19T07:47:21;42.55;;;7.22;;
18732;SDS011;9495;51.210;2.934;2023-11-19T07:49:50;44.28;;;8.30;;
18732;SDS011;9495;51.210;2.934;2023-11-19T07:52:19;50.00;;;9.27;;
18732;SDS011;9495;51.210;2.934;2023-11-19T07:54:48;38.08;;;8.18;;
18732;SDS011;9495;51.210;2.934;2023-11-19T07:57:16;46.60;;;8.75;;
18732;SDS011;9495;51.210;2.934;2023-11-19T07:59:45;48.40;;;8.80;;
18732;SDS011;9495;51.210;2.934;2023-11-19T08:02:15;41.95;;;8.38;;
18732;SDS011;9495;51.210;2.934;2023-11-19T08:04:45;49.17;;;8.63;;
18732;SDS011;9495;51.210;2.934;2023-11-19T08:07:16;46.25;;;8.82;;
18732;SDS011;9495;51.210;2.934;2023-11-19T08:09:45;47.67;;;7.45;;
18732;SDS011;9495;51.210;2.934;2023-11-19T08:12:14;46.50;;;8.95;;
18732;SDS011;9495;51.210;2.934;2023-11-19T08:14:43;48.25;;;8.48;;
18732;SDS011;9495;51.210;2.934;2023-11-19T08:17:12;39.80;;;7.88;;
18732;SDS011;9495;51.210;2.934;2023-11-19T08:19:42;49.47;;;9.20;;
18732;SDS011;9495;51.210;2.934;2023-11-19T08:22:10;49.15;;;8.75;;
18732;SDS011;9495;51.210;2.934;2023-11-19T08:24:39;53.35;;;8.43;;
18732;SDS011;9495;51.210;2.934;2023-11-19T08:27:08;45.00;;;7.50;;
18732;SDS011;9495;51.210;2.934;2023-11-19T08:29:36;33.83;;;6.82;;
18732;SDS011;9495;51.210;2.934;2023-11-19T08:32:05;40.35;;;7.57;;
18732;SDS011;9495;51.210;2.934;2023-11-19T08:34:34;38.22;;;7.28;;
18732;SDS011;9495;51.210;2.934;2023-11-19T08:37:04;52.72;;;8.13;;
18732;SDS011;9495;51.210;2.934;2023-11-19T08:39:32;40.60;;;7.72;;
18732;SDS011;9495;51.210;2.934;2023-11-19T08:42:01;39.50;;;7.57;;
18732;SDS011;9495;51.210;2.934;2023-11-19T08:44:30;41.72;;;7.72;;
18732;SDS011;9495;51.210;2.934;2023-11-19T08:46:58;37.03;;;6.60;;
18732;SDS011;9495;51.210;2.934;2023-11-19T08:49:26;42.20;;;7.95;;
18732;SDS011;9495;51.210;2.934;2023-11-19T08:51:55;43.03;;;7.78;;
18732;SDS011;9495;51.210;2.934;2023-11-19T08:54:25;46.17;;;8.77;;
18732;SDS011;9495;51.210;2.934;2023-11-19T08:56:53;42.60;;;7.85;;
18732;SDS011;9495;51.210;2.934;2023-11-19T08:59:22;37.53;;;6.72;;
18732;SDS011;9495;51.210;2.934;2023-11-19T09:01:50;35.72;;;6.85;;
18732;SDS011;9495;51.210;2.934;2023-11-19T09:04:19;39.72;;;7.57;;
18732;SDS011;9495;51.210;2.934;2023-11-19T09:06:49;36.40;;;6.70;;
18732;SDS011;9495;51.210;2.934;2023-11-19T09:09:17;36.40;;;7.30;;
18732;SDS011;9495;51.210;2.934;2023-11-19T09:11:47;38.63;;;7.05;;
18732;SDS011;9495;51.210;2.934;2023-11-19T09:14:16;33.38;;;8.15;;
18732;SDS011;9495;51.210;2.934;2023-11-19T09:16:48;38.05;;;7.75;;
18732;SDS011;9495;51.210;2.934;2023-11-19T09:19:17;37.70;;;7.80;;
18732;SDS011;9495;51.210;2.934;2023-11-19T09:21:45;40.15;;;7.78;;
18732;SDS011;9495;51.210;2.934;2023-11-19T09:24:15;45.20;;;7.13;;
18732;SDS011;9495;51.210;2.934;2023-11-19T09:26:44;42.10;;;7.93;;
18732;SDS011;9495;51.210;2.934;2023-11-19T09:29:13;38.92;;;7.82;;
18732;SDS011;9495;51.210;2.934;2023-11-19T09:31:43;63.55;;;8.30;;
18732;SDS011;9495;51.210;2.934;2023-11-19T09:34:11;53.60;;;8.43;;
18732;SDS011;9495;51.210;2.934;2023-11-19T09:36:40;47.42;;;8.10;;
18732;SDS011;9495;51.210;2.934;2023-11-19T09:39:11;40.92;;;7.35;;
18732;SDS011;9495;51.210;2.934;2023-11-19T09:41:41;38.58;;;7.25;;
18732;SDS011;9495;51.210;2.934;2023-11-19T09:44:11;40.53;;;7.10;;
18732;SDS011;9495;51.210;2.934;2023-11-19T09:46:45;44.13;;;7.40;;
18732;SDS011;9495;51.210;2.934;2023-11-19T09:49:15;43.78;;;8.95;;
18732;SDS011;9495;51.210;2.934;2023-11-19T09:52:02;39.10;;;8.07;;
18732;SDS011;9495;51.210;2.934;2023-11-19T09:54:31;36.97;;;7.47;;
18732;SDS011;9495;51.210;2.934;2023-11-19T09:57:00;40.90;;;7.57;;
18732;SDS011;9495;51.210;2.934;2023-11-19T09:59:32;45.58;;;8.77;;
18732;SDS011;9495;51.210;2.934;2023-11-19T10:02:01;41.92;;;8.60;;
18732;SDS011;9495;51.210;2.934;2023-11-19T10:04:32;52.88;;;9.38;;
18732;SDS011;9495;51.210;2.934;2023-11-19T10:07:04;43.58;;;8.90;;
18732;SDS011;9495;51.210;2.934;2023-11-19T10:09:32;48.47;;;9.15;;
18732;SDS011;9495;51.210;2.934;2023-11-19T10:12:01;49.63;;;9.15;;
18732;SDS011;9495;51.210;2.934;2023-11-19T10:14:30;59.25;;;9.52;;
18732;SDS011;9495;51.210;2.934;2023-11-19T10:17:03;45.38;;;9.35;;
18732;SDS011;9495;51.210;2.934;2023-11-19T10:19:34;41.75;;;8.50;;
18732;SDS011;9495;51.210;2.934;2023-11-19T10:22:04;45.85;;;8.15;;
18732;SDS011;9495;51.210;2.934;2023-11-19T10:24:32;42.38;;;7.90;;
18732;SDS011;9495;51.210;2.934;2023-11-19T10:27:06;43.30;;;7.28;;
18732;SDS011;9495;51.210;2.934;2023-11-19T10:29:37;40.55;;;8.65;;
18732;SDS011;9495;51.210;2.934;2023-11-19T10:32:06;42.90;;;7.93;;
18732;SDS011;9495;51.210;2.934;2023-11-19T10:34:52;43.00;;;8.75;;
18732;SDS011;9495;51.210;2.934;2023-11-19T10:37:32;33.90;;;6.72;;
18732;SDS011;9495;51.210;2.934;2023-11-19T10:40:04;40.60;;;8.35;;
18732;SDS011;9495;51.210;2.934;2023-11-19T10:42:37;43.53;;;8.70;;
18732;SDS011;9495;51.210;2.934;2023-11-19T10:45:12;40.95;;;7.50;;
18732;SDS011;9495;51.210;2.934;2023-11-19T10:47:51;42.67;;;7.35;;
18732;SDS011;9495;51.210;2.934;2023-11-19T10:50:20;41.58;;;7.13;;
18732;SDS011;9495;51.210;2.934;2023-11-19T10:52:50;45.30;;;8.55;;
18732;SDS011;9495;51.210;2.934;2023-11-19T10:55:26;45.83;;;8.63;;
18732;SDS011;9495;51.210;2.934;2023-11-19T10:57:58;33.03;;;7.30;;
18732;SDS011;9495;51.210;2.934;2023-11-19T11:00:30;38.13;;;7.93;;
18732;SDS011;9495;51.210;2.934;2023-11-19T11:03:08;43.13;;;7.25;;
18732;SDS011;9495;51.210;2.934;2023-11-19T11:05:39;40.72;;;7.28;;
18732;SDS011;9495;51.210;2.934;2023-11-19T11:08:09;33.67;;;7.13;;
18732;SDS011;9495;51.210;2.934;2023-11-19T11:10:39;26.30;;;5.90;;
18732;SDS011;9495;51.210;2.934;2023-11-19T11:13:13;29.25;;;6.22;;
18732;SDS011;9495;51.210;2.934;2023-11-19T11:15:43;27.67;;;5.40;;
18732;SDS011;9495;51.210;2.934;2023-11-19T11:18:13;25.83;;;5.95;;
18732;SDS011;9495;51.210;2.934;2023-11-19T11:20:41;31.60;;;6.03;;
18732;SDS011;9495;51.210;2.934;2023-11-19T11:26:34;27.23;;;5.88;;
18732;SDS011;9495;51.210;2.934;2023-11-19T11:29:14;34.00;;;7.07;;
18732;SDS011;9495;51.210;2.934;2023-11-19T11:31:54;30.30;;;6.10;;
18732;SDS011;9495;51.210;2.934;2023-11-19T11:34:35;32.38;;;6.47;;
18732;SDS011;9495;51.210;2.934;2023-11-19T11:37:17;33.90;;;6.97;;
18732;SDS011;9495;51.210;2.934;2023-11-19T11:39:50;34.55;;;6.82;;
18732;SDS011;9495;51.210;2.934;2023-11-19T11:42:33;33.97;;;7.03;;
18732;SDS011;9495;51.210;2.934;2023-11-19T11:45:02;37.00;;;7.00;;
18732;SDS011;9495;51.210;2.934;2023-11-19T11:50:52;35.65;;;7.43;;
18732;SDS011;9495;51.210;2.934;2023-11-19T11:53:22;34.15;;;6.63;;
18732;SDS011;9495;51.210;2.934;2023-11-19T11:55:52;35.15;;;6.82;;
18732;SDS011;9495;51.210;2.934;2023-11-19T11:58:26;38.53;;;6.75;;
18732;SDS011;9495;51.210;2.934;2023-11-19T12:00:59;32.38;;;6.45;;
18732;SDS011;9495;51.210;2.934;2023-11-19T12:03:32;34.63;;;6.55;;
18732;SDS011;9495;51.210;2.934;2023-11-19T12:06:03;28.60;;;6.55;;
18732;SDS011;9495;51.210;2.934;2023-11-19T12:08:31;35.30;;;6.75;;
18732;SDS011;9495;51.210;2.934;2023-11-19T12:11:19;34.35;;;5.30;;
18732;SDS011;9495;51.210;2.934;2023-11-19T12:13:53;35.00;;;6.10;;
18732;SDS011;9495;51.210;2.934;2023-11-19T12:16:29;26.15;;;6.45;;
18732;SDS011;9495;51.210;2.934;2023-11-19T12:19:02;29.67;;;5.78;;
18732;SDS011;9495;51.210;2.934;2023-11-19T12:21:33;25.60;;;5.85;;
18732;SDS011;9495;51.210;2.934;2023-11-19T12:24:04;28.33;;;5.85;;
18732;SDS011;9495;51.210;2.934;2023-11-19T12:26:35;30.45;;;6.15;;
18732;SDS011;9495;51.210;2.934;2023-11-19T12:29:05;31.63;;;5.50;;
18732;SDS011;9495;51.210;2.934;2023-11-19T12:31:36;22.23;;;4.93;;
18732;SDS011;9495;51.210;2.934;2023-11-19T12:34:06;30.13;;;5.18;;
18732;SDS011;9495;51.210;2.934;2023-11-19T12:36:41;26.08;;;4.28;;
18732;SDS011;9495;51.210;2.934;2023-11-19T12:39:10;30.80;;;6.10;;
18732;SDS011;9495;51.210;2.934;2023-11-19T12:41:51;28.75;;;5.78;;
18732;SDS011;9495;51.210;2.934;2023-11-19T12:44:21;31.27;;;5.38;;
18732;SDS011;9495;51.210;2.934;2023-11-19T12:47:02;22.30;;;5.40;;
18732;SDS011;9495;51.210;2.934;2023-11-19T12:49:31;27.52;;;5.82;;
18732;SDS011;9495;51.210;2.934;2023-11-19T12:52:01;28.10;;;5.47;;
18732;SDS011;9495;51.210;2.934;2023-11-19T12:54:33;29.05;;;5.95;;
18732;SDS011;9495;51.210;2.934;2023-11-19T12:57:03;30.98;;;5.80;;
18732;SDS011;9495;51.210;2.934;2023-11-19T12:59:32;27.27;;;5.88;;
18732;SDS011;9495;51.210;2.934;2023-11-19T13:02:01;32.00;;;5.88;;
18732;SDS011;9495;51.210;2.934;2023-11-19T13:04:32;36.05;;;7.63;;
18732;SDS011;9495;51.210;2.934;2023-11-19T13:07:03;31.70;;;6.05;;
18732;SDS011;9495;51.210;2.934;2023-11-19T13:09:32;23.30;;;5.57;;
18732;SDS011;9495;51.210;2.934;2023-11-19T13:12:11;27.23;;;6.22;;
18732;SDS011;9495;51.210;2.934;2023-11-19T13:14:42;28.65;;;5.65;;
18732;SDS011;9495;51.210;2.934;2023-11-19T13:17:15;26.38;;;6.10;;
18732;SDS011;9495;51.210;2.934;2023-11-19T13:19:43;19.20;;;4.38;;
18732;SDS011;9495;51.210;2.934;2023-11-19T13:22:16;29.98;;;5.63;;
18732;SDS011;9495;51.210;2.934;2023-11-19T13:24:44;29.10;;;4.90;;
18732;SDS011;9495;51.210;2.934;2023-11-19T13:27:13;20.55;;;4.25;;
18732;SDS011;9495;51.210;2.934;2023-11-19T13:29:41;26.55;;;4.97;;
18732;SDS011;9495;51.210;2.934;2023-11-19T13:32:10;23.75;;;5.05;;
18732;SDS011;9495;51.210;2.934;2023-11-19T13:34:38;27.17;;;5.20;;
18732;SDS011;9495;51.210;2.934;2023-11-19T13:37:07;24.83;;;5.18;;
18732;SDS011;9495;51.210;2.934;2023-11-19T13:39:41;22.33;;;4.90;;
18732;SDS011;9495;51.210;2.934;2023-11-19T13:42:09;18.30;;;4.82;;
18732;SDS011;9495;51.210;2.934;2023-11-19T13:44:39;23.67;;;4.93;;
18732;SDS011;9495;51.210;2.934;2023-11-19T13:47:09;22.35;;;4.55;;
18732;SDS011;9495;51.210;2.934;2023-11-19T13:49:37;30.40;;;6.57;;
18732;SDS011;9495;51.210;2.934;2023-11-19T13:52:06;26.33;;;5.03;;
18732;SDS011;9495;51.210;2.934;2023-11-19T13:54:36;24.38;;;5.80;;
18732;SDS011;9495;51.210;2.934;2023-11-19T13:57:06;30.13;;;5.45;;
18732;SDS011;9495;51.210;2.934;2023-11-19T13:59:39;25.13;;;5.13;;
18732;SDS011;9495;51.210;2.934;2023-11-19T14:02:08;29.75;;;6.88;;
18732;SDS011;9495;51.210;2.934;2023-11-19T14:04:36;28.10;;;6.70;;
18732;SDS011;9495;51.210;2.934;2023-11-19T14:07:05;30.10;;;6.63;;
18732;SDS011;9495;51.210;2.934;2023-11-19T14:09:34;28.67;;;5.95;;
18732;SDS011;9495;51.210;2.934;2023-11-19T14:12:04;35.72;;;7.32;;
18732;SDS011;9495;51.210;2.934;2023-11-19T14:14:33;37.58;;;7.05;;
18732;SDS011;9495;51.210;2.934;2023-11-19T14:17:01;28.83;;;6.15;;
18732;SDS011;9495;51.210;2.934;2023-11-19T14:19:33;26.92;;;5.03;;
18732;SDS011;9495;51.210;2.934;2023-11-19T14:22:02;24.67;;;5.32;;
18732;SDS011;9495;51.210;2.934;2023-11-19T14:24:30;20.00;;;4.13;;
18732;SDS011;9495;51.210;2.934;2023-11-19T14:26:59;24.40;;;4.93;;
18732;SDS011;9495;51.210;2.934;2023-11-19T14:29:29;16.95;;;4.93;;
18732;SDS011;9495;51.210;2.934;2023-11-19T14:31:58;19.10;;;4.43;;
18732;SDS011;9495;51.210;2.934;2023-11-19T14:34:27;24.77;;;6.10;;
18732;SDS011;9495;51.210;2.934;2023-11-19T14:36:56;32.97;;;6.18;;
18732;SDS011;9495;51.210;2.934;2023-11-19T14:39:25;27.00;;;6.50;;
18732;SDS011;9495;51.210;2.934;2023-11-19T14:41:53;35.40;;;6.63;;
18732;SDS011;9495;51.210;2.934;2023-11-19T14:44:24;34.72;;;5.85;;
18732;SDS011;9495;51.210;2.934;2023-11-19T14:46:54;26.65;;;6.00;;
18732;SDS011;9495;51.210;2.934;2023-11-19T14:49:22;26.58;;;5.65;;
18732;SDS011;9495;51.210;2.934;2023-11-19T14:51:51;29.88;;;5.68;;
18732;SDS011;9495;51.210;2.934;2023-11-19T14:54:20;24.73;;;5.13;;
18732;SDS011;9495;51.210;2.934;2023-11-19T14:56:48;29.23;;;6.28;;
18732;SDS011;9495;51.210;2.934;2023-11-19T14:59:18;27.00;;;5.22;;
18732;SDS011;9495;51.210;2.934;2023-11-19T15:01:47;23.67;;;5.57;;
18732;SDS011;9495;51.210;2.934;2023-11-19T15:04:16;28.55;;;5.53;;
18732;SDS011;9495;51.210;2.934;2023-11-19T15:06:45;23.95;;;5.20;;
18732;SDS011;9495;51.210;2.934;2023-11-19T15:09:13;25.55;;;5.50;;